sensor_id;sensor_type;location;lat;lon;timestamp;temperature;humidity
13642;DHT22;6894;52.196;9.904;2023-05-10T00:00:08;14.10;1.00
13642;DHT22;6894;52.196;9.904;2023-05-10T00:02:35;14.10;1.00
13642;DHT22;6894;52.196;9.904;2023-05-10T00:05:04;14.00;1.00
13642;DHT22;6894;52.196;9.904;2023-05-10T00:07:31;14.00;1.00
13642;DHT22;6894;52.196;9.904;2023-05-10T00:09:58;14.00;1.00
13642;DHT22;6894;52.196;9.904;2023-05-10T00:12:25;13.90;1.00
13642;DHT22;6894;52.196;9.904;2023-05-10T00:14:51;13.80;1.00
13642;DHT22;6894;52.196;9.904;2023-05-10T00:17:18;13.80;1.00
13642;DHT22;6894;52.196;9.904;2023-05-10T00:19:45;13.70;91.70
13642;DHT22;6894;52.196;9.904;2023-05-10T00:22:13;13.70;99.90
13642;DHT22;6894;52.196;9.904;2023-05-10T00:24:40;13.60;1.00
13642;DHT22;6894;52.196;9.904;2023-05-10T00:27:07;13.50;1.00
13642;DHT22;6894;52.196;9.904;2023-05-10T00:29:33;13.50;1.00
13642;DHT22;6894;52.196;9.904;2023-05-10T00:32:00;13.40;1.00
13642;DHT22;6894;52.196;9.904;2023-05-10T00:34:27;13.40;1.00
13642;DHT22;6894;52.196;9.904;2023-05-10T00:36:54;13.40;1.00
13642;DHT22;6894;52.196;9.904;2023-05-10T00:39:22;13.30;1.00
13642;DHT22;6894;52.196;9.904;2023-05-10T00:41:49;13.30;1.00
13642;DHT22;6894;52.196;9.904;2023-05-10T00:44:16;13.20;1.00
13642;DHT22;6894;52.196;9.904;2023-05-10T00:46:44;13.10;99.90
13642;DHT22;6894;52.196;9.904;2023-05-10T00:49:11;13.10;99.90
13642;DHT22;6894;52.196;9.904;2023-05-10T00:51:38;13.00;1.00
13642;DHT22;6894;52.196;9.904;2023-05-10T00:54:05;12.90;1.00
13642;DHT22;6894;52.196;9.904;2023-05-10T00:56:33;12.80;1.00
13642;DHT22;6894;52.196;9.904;2023-05-10T00:59:00;12.80;1.00
13642;DHT22;6894;52.196;9.904;2023-05-10T01:01:28;12.70;1.00
13642;DHT22;6894;52.196;9.904;2023-05-10T01:03:55;12.70;1.00
13642;DHT22;6894;52.196;9.904;2023-05-10T01:06:22;12.70;1.00
13642;DHT22;6894;52.196;9.904;2023-05-10T01:08:49;12.60;1.00
13642;DHT22;6894;52.196;9.904;2023-05-10T01:11:16;12.60;1.00
13642;DHT22;6894;52.196;9.904;2023-05-10T01:13:47;12.60;1.00
13642;DHT22;6894;52.196;9.904;2023-05-10T01:16:16;12.60;94.50
13642;DHT22;6894;52.196;9.904;2023-05-10T01:18:44;12.60;99.90
13642;DHT22;6894;52.196;9.904;2023-05-10T01:21:19;12.50;1.00
13642;DHT22;6894;52.196;9.904;2023-05-10T01:30:35;12.40;1.00
13642;DHT22;6894;52.196;9.904;2023-05-10T01:33:16;12.30;1.00
13642;DHT22;6894;52.196;9.904;2023-05-10T01:35:50;12.30;1.00
13642;DHT22;6894;52.196;9.904;2023-05-10T01:38:25;12.40;1.00
13642;DHT22;6894;52.196;9.904;2023-05-10T01:41:01;12.40;1.00
13642;DHT22;6894;52.196;9.904;2023-05-10T01:43:35;12.30;1.00
13642;DHT22;6894;52.196;9.904;2023-05-10T01:46:07;12.30;1.00
13642;DHT22;6894;52.196;9.904;2023-05-10T01:48:41;12.30;1.00
13642;DHT22;6894;52.196;9.904;2023-05-10T01:51:13;12.30;1.00
13642;DHT22;6894;52.196;9.904;2023-05-10T01:53:42;12.40;1.00
13642;DHT22;6894;52.196;9.904;2023-05-10T01:56:11;12.40;1.00
13642;DHT22;6894;52.196;9.904;2023-05-10T01:58:40;12.40;1.00
13642;DHT22;6894;52.196;9.904;2023-05-10T02:01:11;12.40;1.00
13642;DHT22;6894;52.196;9.904;2023-05-10T02:03:41;12.50;1.00
13642;DHT22;6894;52.196;9.904;2023-05-10T02:06:10;12.40;1.00
13642;DHT22;6894;52.196;9.904;2023-05-10T02:08:40;12.40;1.00
13642;DHT22;6894;52.196;9.904;2023-05-10T02:11:08;12.30;99.90
13642;DHT22;6894;52.196;9.904;2023-05-10T02:13:37;12.40;99.90
13642;DHT22;6894;52.196;9.904;2023-05-10T02:16:05;12.30;1.00
13642;DHT22;6894;52.196;9.904;2023-05-10T02:18:34;12.40;1.00
13642;DHT22;6894;52.196;9.904;2023-05-10T02:21:03;12.40;99.90
13642;DHT22;6894;52.196;9.904;2023-05-10T02:23:30;12.40;1.00
13642;DHT22;6894;52.196;9.904;2023-05-10T02:25:59;12.30;1.00
13642;DHT22;6894;52.196;9.904;2023-05-10T02:28:28;12.30;29.10
13642;DHT22;6894;52.196;9.904;2023-05-10T02:30:56;12.20;1.00
13642;DHT22;6894;52.196;9.904;2023-05-10T02:33:23;12.20;1.00
13642;DHT22;6894;52.196;9.904;2023-05-10T02:35:51;12.20;1.00
13642;DHT22;6894;52.196;9.904;2023-05-10T02:38:20;12.10;1.00
13642;DHT22;6894;52.196;9.904;2023-05-10T02:40:48;12.00;1.00
13642;DHT22;6894;52.196;9.904;2023-05-10T02:43:16;11.90;55.50
13642;DHT22;6894;52.196;9.904;2023-05-10T02:45:43;11.90;99.90
13642;DHT22;6894;52.196;9.904;2023-05-10T02:48:13;11.80;99.90
13642;DHT22;6894;52.196;9.904;2023-05-10T02:50:44;11.90;1.00
13642;DHT22;6894;52.196;9.904;2023-05-10T02:53:15;12.00;99.90
13642;DHT22;6894;52.196;9.904;2023-05-10T02:55:45;12.00;99.90
13642;DHT22;6894;52.196;9.904;2023-05-10T02:58:13;12.00;99.90
13642;DHT22;6894;52.196;9.904;2023-05-10T03:00:40;12.00;99.90
13642;DHT22;6894;52.196;9.904;2023-05-10T03:03:07;12.10;1.00
13642;DHT22;6894;52.196;9.904;2023-05-10T03:05:34;12.10;1.00
13642;DHT22;6894;52.196;9.904;2023-05-10T03:08:00;12.10;1.00
13642;DHT22;6894;52.196;9.904;2023-05-10T03:10:30;12.20;26.40
13642;DHT22;6894;52.196;9.904;2023-05-10T03:13:11;12.10;1.00
13642;DHT22;6894;52.196;9.904;2023-05-10T03:15:48;12.10;1.00
13642;DHT22;6894;52.196;9.904;2023-05-10T03:18:22;12.10;99.90
13642;DHT22;6894;52.196;9.904;2023-05-10T03:20:51;12.00;1.00
13642;DHT22;6894;52.196;9.904;2023-05-10T03:23:30;12.10;99.90
13642;DHT22;6894;52.196;9.904;2023-05-10T03:25:59;12.10;1.00
13642;DHT22;6894;52.196;9.904;2023-05-10T03:28:28;12.10;1.00
13642;DHT22;6894;52.196;9.904;2023-05-10T03:30:56;12.10;1.00
13642;DHT22;6894;52.196;9.904;2023-05-10T03:33:23;12.00;1.00
13642;DHT22;6894;52.196;9.904;2023-05-10T03:35:49;12.10;1.00
13642;DHT22;6894;52.196;9.904;2023-05-10T03:38:16;12.00;30.00
13642;DHT22;6894;52.196;9.904;2023-05-10T03:40:43;12.00;99.90
13642;DHT22;6894;52.196;9.904;2023-05-10T03:43:10;12.00;99.90
13642;DHT22;6894;52.196;9.904;2023-05-10T03:45:38;12.00;99.90
13642;DHT22;6894;52.196;9.904;2023-05-10T03:48:05;12.00;1.00
13642;DHT22;6894;52.196;9.904;2023-05-10T03:50:32;12.00;1.00
13642;DHT22;6894;52.196;9.904;2023-05-10T03:52:59;11.90;1.00
13642;DHT22;6894;52.196;9.904;2023-05-10T03:55:25;12.00;1.00
13642;DHT22;6894;52.196;9.904;2023-05-10T03:57:52;12.00;1.00
13642;DHT22;6894;52.196;9.904;2023-05-10T04:00:20;12.00;1.00
13642;DHT22;6894;52.196;9.904;2023-05-10T04:02:48;12.00;1.00
13642;DHT22;6894;52.196;9.904;2023-05-10T04:05:15;12.00;1.00
13642;DHT22;6894;52.196;9.904;2023-05-10T04:07:42;11.90;3.60
13642;DHT22;6894;52.196;9.904;2023-05-10T04:10:10;12.00;58.90
13642;DHT22;6894;52.196;9.904;2023-05-10T04:12:37;12.00;99.90
13642;DHT22;6894;52.196;9.904;2023-05-10T04:15:04;12.00;99.90
13642;DHT22;6894;52.196;9.904;2023-05-10T04:17:32;11.90;99.90
13642;DHT22;6894;52.196;9.904;2023-05-10T04:20:00;12.00;99.90
13642;DHT22;6894;52.196;9.904;2023-05-10T04:22:27;11.90;99.90
13642;DHT22;6894;52.196;9.904;2023-05-10T04:24:54;12.00;99.90
13642;DHT22;6894;52.196;9.904;2023-05-10T04:27:21;12.00;99.90
13642;DHT22;6894;52.196;9.904;2023-05-10T04:29:48;11.90;99.90
13642;DHT22;6894;52.196;9.904;2023-05-10T04:32:15;11.90;99.90
13642;DHT22;6894;52.196;9.904;2023-05-10T04:34:42;11.90;99.90
13642;DHT22;6894;52.196;9.904;2023-05-10T04:37:10;12.00;99.90
13642;DHT22;6894;52.196;9.904;2023-05-10T04:39:37;12.10;99.90
13642;DHT22;6894;52.196;9.904;2023-05-10T04:42:04;12.00;99.90
13642;DHT22;6894;52.196;9.904;2023-05-10T04:44:31;12.00;99.90
13642;DHT22;6894;52.196;9.904;2023-05-10T04:46:58;12.10;99.90
13642;DHT22;6894;52.196;9.904;2023-05-10T04:49:25;12.20;99.90
13642;DHT22;6894;52.196;9.904;2023-05-10T04:51:51;12.20;99.90
13642;DHT22;6894;52.196;9.904;2023-05-10T04:54:20;12.20;99.90
13642;DHT22;6894;52.196;9.904;2023-05-10T04:56:46;12.20;99.90
13642;DHT22;6894;52.196;9.904;2023-05-10T04:59:13;12.20;99.90
13642;DHT22;6894;52.196;9.904;2023-05-10T05:01:40;12.10;99.90
13642;DHT22;6894;52.196;9.904;2023-05-10T05:04:07;12.00;99.90
13642;DHT22;6894;52.196;9.904;2023-05-10T05:06:34;12.00;99.90
13642;DHT22;6894;52.196;9.904;2023-05-10T05:09:00;12.00;99.90
13642;DHT22;6894;52.196;9.904;2023-05-10T05:11:29;12.00;99.90
13642;DHT22;6894;52.196;9.904;2023-05-10T05:13:56;12.10;99.90
13642;DHT22;6894;52.196;9.904;2023-05-10T05:16:24;12.10;99.90
13642;DHT22;6894;52.196;9.904;2023-05-10T05:18:51;12.20;99.90
13642;DHT22;6894;52.196;9.904;2023-05-10T05:21:19;12.20;99.90
13642;DHT22;6894;52.196;9.904;2023-05-10T05:23:46;12.30;99.90
13642;DHT22;6894;52.196;9.904;2023-05-10T05:26:12;12.40;99.90
13642;DHT22;6894;52.196;9.904;2023-05-10T05:28:41;12.40;99.90
13642;DHT22;6894;52.196;9.904;2023-05-10T05:31:08;12.40;99.90
13642;DHT22;6894;52.196;9.904;2023-05-10T05:33:35;12.40;99.90
13642;DHT22;6894;52.196;9.904;2023-05-10T05:36:02;12.40;99.90
13642;DHT22;6894;52.196;9.904;2023-05-10T05:38:30;12.50;99.90
13642;DHT22;6894;52.196;9.904;2023-05-10T05:40:57;12.40;99.90
13642;DHT22;6894;52.196;9.904;2023-05-10T05:43:24;12.50;99.90
13642;DHT22;6894;52.196;9.904;2023-05-10T05:45:53;12.50;99.90
13642;DHT22;6894;52.196;9.904;2023-05-10T05:48:21;12.60;99.90
13642;DHT22;6894;52.196;9.904;2023-05-10T05:50:48;12.60;99.90
13642;DHT22;6894;52.196;9.904;2023-05-10T05:53:14;12.70;99.90
13642;DHT22;6894;52.196;9.904;2023-05-10T05:55:51;12.70;99.90
13642;DHT22;6894;52.196;9.904;2023-05-10T05:58:17;12.80;99.90
13642;DHT22;6894;52.196;9.904;2023-05-10T06:00:44;12.80;99.90
13642;DHT22;6894;52.196;9.904;2023-05-10T06:03:12;12.70;99.90
13642;DHT22;6894;52.196;9.904;2023-05-10T06:05:39;12.80;99.90
13642;DHT22;6894;52.196;9.904;2023-05-10T06:08:06;12.70;99.90
13642;DHT22;6894;52.196;9.904;2023-05-10T06:10:33;12.60;99.90
13642;DHT22;6894;52.196;9.904;2023-05-10T06:12:59;12.60;99.90
13642;DHT22;6894;52.196;9.904;2023-05-10T06:15:27;12.60;99.90
13642;DHT22;6894;52.196;9.904;2023-05-10T06:17:53;12.50;99.90
13642;DHT22;6894;52.196;9.904;2023-05-10T06:20:22;12.50;99.90
13642;DHT22;6894;52.196;9.904;2023-05-10T06:22:48;12.50;99.90
13642;DHT22;6894;52.196;9.904;2023-05-10T06:25:15;12.60;99.90
13642;DHT22;6894;52.196;9.904;2023-05-10T06:27:43;12.60;99.90
13642;DHT22;6894;52.196;9.904;2023-05-10T06:30:10;12.70;99.90
13642;DHT22;6894;52.196;9.904;2023-05-10T06:32:38;12.60;99.90
13642;DHT22;6894;52.196;9.904;2023-05-10T06:35:06;12.70;99.90
13642;DHT22;6894;52.196;9.904;2023-05-10T06:37:34;12.80;99.90
13642;DHT22;6894;52.196;9.904;2023-05-10T06:40:01;12.80;99.90
13642;DHT22;6894;52.196;9.904;2023-05-10T06:42:29;12.80;99.90
13642;DHT22;6894;52.196;9.904;2023-05-10T06:44:56;12.90;99.90
13642;DHT22;6894;52.196;9.904;2023-05-10T06:47:22;12.90;99.90
13642;DHT22;6894;52.196;9.904;2023-05-10T06:49:49;12.90;99.90
13642;DHT22;6894;52.196;9.904;2023-05-10T06:52:16;12.90;99.90
13642;DHT22;6894;52.196;9.904;2023-05-10T06:54:44;13.00;99.90
13642;DHT22;6894;52.196;9.904;2023-05-10T06:57:11;13.00;99.90
13642;DHT22;6894;52.196;9.904;2023-05-10T06:59:38;13.10;99.90
13642;DHT22;6894;52.196;9.904;2023-05-10T07:02:05;13.10;99.90
13642;DHT22;6894;52.196;9.904;2023-05-10T07:04:32;13.10;99.90
13642;DHT22;6894;52.196;9.904;2023-05-10T07:06:59;13.20;99.90
13642;DHT22;6894;52.196;9.904;2023-05-10T07:09:26;13.30;99.90
13642;DHT22;6894;52.196;9.904;2023-05-10T07:11:54;13.30;99.90
13642;DHT22;6894;52.196;9.904;2023-05-10T07:14:22;13.30;99.90
13642;DHT22;6894;52.196;9.904;2023-05-10T07:16:49;13.30;99.90
13642;DHT22;6894;52.196;9.904;2023-05-10T07:19:16;13.30;99.90
13642;DHT22;6894;52.196;9.904;2023-05-10T07:21:43;13.40;99.90
13642;DHT22;6894;52.196;9.904;2023-05-10T07:24:09;13.40;99.90
13642;DHT22;6894;52.196;9.904;2023-05-10T07:26:36;13.50;99.90
13642;DHT22;6894;52.196;9.904;2023-05-10T07:29:04;13.50;99.90
13642;DHT22;6894;52.196;9.904;2023-05-10T07:31:32;13.60;99.90
13642;DHT22;6894;52.196;9.904;2023-05-10T07:33:58;13.60;99.90
13642;DHT22;6894;52.196;9.904;2023-05-10T07:36:25;13.60;99.90
13642;DHT22;6894;52.196;9.904;2023-05-10T07:38:53;13.60;99.90
13642;DHT22;6894;52.196;9.904;2023-05-10T07:41:20;13.60;99.90
13642;DHT22;6894;52.196;9.904;2023-05-10T07:43:47;13.60;99.90
13642;DHT22;6894;52.196;9.904;2023-05-10T07:46:15;13.60;99.90
13642;DHT22;6894;52.196;9.904;2023-05-10T07:48:42;13.60;99.90
13642;DHT22;6894;52.196;9.904;2023-05-10T07:51:09;13.70;99.90
13642;DHT22;6894;52.196;9.904;2023-05-10T07:53:36;13.80;99.90
13642;DHT22;6894;52.196;9.904;2023-05-10T07:56:22;13.70;99.90
13642;DHT22;6894;52.196;9.904;2023-05-10T07:58:50;13.80;99.90
13642;DHT22;6894;52.196;9.904;2023-05-10T08:01:19;13.80;99.90
13642;DHT22;6894;52.196;9.904;2023-05-10T08:03:45;13.80;99.90
13642;DHT22;6894;52.196;9.904;2023-05-10T08:06:12;13.80;99.90
13642;DHT22;6894;52.196;9.904;2023-05-10T08:08:39;13.90;99.90
13642;DHT22;6894;52.196;9.904;2023-05-10T08:11:06;13.90;99.90
13642;DHT22;6894;52.196;9.904;2023-05-10T08:13:33;14.00;99.90
13642;DHT22;6894;52.196;9.904;2023-05-10T08:16:00;14.00;99.90
13642;DHT22;6894;52.196;9.904;2023-05-10T08:18:28;14.10;99.90
13642;DHT22;6894;52.196;9.904;2023-05-10T08:20:55;14.00;99.90
13642;DHT22;6894;52.196;9.904;2023-05-10T08:23:22;14.10;99.90
13642;DHT22;6894;52.196;9.904;2023-05-10T08:25:49;14.10;99.90
13642;DHT22;6894;52.196;9.904;2023-05-10T08:28:16;14.10;99.90
13642;DHT22;6894;52.196;9.904;2023-05-10T08:30:42;14.20;99.90
13642;DHT22;6894;52.196;9.904;2023-05-10T08:33:09;14.20;99.90
13642;DHT22;6894;52.196;9.904;2023-05-10T08:35:38;14.20;99.90
13642;DHT22;6894;52.196;9.904;2023-05-10T08:38:04;14.10;99.90
13642;DHT22;6894;52.196;9.904;2023-05-10T08:40:31;14.00;99.90
13642;DHT22;6894;52.196;9.904;2023-05-10T08:43:05;14.10;99.90
13642;DHT22;6894;52.196;9.904;2023-05-10T08:45:36;14.10;99.90
13642;DHT22;6894;52.196;9.904;2023-05-10T08:48:06;14.00;99.90
13642;DHT22;6894;52.196;9.904;2023-05-10T08:50:35;14.00;99.90
13642;DHT22;6894;52.196;9.904;2023-05-10T08:53:06;14.10;99.90
13642;DHT22;6894;52.196;9.904;2023-05-10T08:55:33;14.20;99.90
13642;DHT22;6894;52.196;9.904;2023-05-10T08:58:02;14.20;99.90
13642;DHT22;6894;52.196;9.904;2023-05-10T09:00:29;14.20;99.90
13642;DHT22;6894;52.196;9.904;2023-05-10T09:02:56;14.20;99.90
13642;DHT22;6894;52.196;9.904;2023-05-10T09:05:24;14.20;99.90
13642;DHT22;6894;52.196;9.904;2023-05-10T09:07:51;14.30;99.90
13642;DHT22;6894;52.196;9.904;2023-05-10T09:10:19;14.40;99.90
13642;DHT22;6894;52.196;9.904;2023-05-10T09:12:48;14.50;99.90
13642;DHT22;6894;52.196;9.904;2023-05-10T09:15:15;14.50;99.90
13642;DHT22;6894;52.196;9.904;2023-05-10T09:17:45;14.70;99.90
13642;DHT22;6894;52.196;9.904;2023-05-10T09:20:12;14.70;99.90
13642;DHT22;6894;52.196;9.904;2023-05-10T09:22:38;14.70;99.90
13642;DHT22;6894;52.196;9.904;2023-05-10T09:25:08;14.70;99.90
13642;DHT22;6894;52.196;9.904;2023-05-10T09:27:38;14.60;99.90
13642;DHT22;6894;52.196;9.904;2023-05-10T09:30:07;14.50;99.90
13642;DHT22;6894;52.196;9.904;2023-05-10T09:32:38;14.50;99.90
13642;DHT22;6894;52.196;9.904;2023-05-10T09:35:12;14.50;99.90
13642;DHT22;6894;52.196;9.904;2023-05-10T09:37:40;14.50;99.90
13642;DHT22;6894;52.196;9.904;2023-05-10T09:40:11;14.60;99.90
13642;DHT22;6894;52.196;9.904;2023-05-10T09:42:41;14.60;99.90
13642;DHT22;6894;52.196;9.904;2023-05-10T09:45:09;14.60;99.90
13642;DHT22;6894;52.196;9.904;2023-05-10T09:47:36;14.70;99.90
13642;DHT22;6894;52.196;9.904;2023-05-10T09:50:03;14.70;99.90
13642;DHT22;6894;52.196;9.904;2023-05-10T09:52:31;14.70;99.90
13642;DHT22;6894;52.196;9.904;2023-05-10T09:55:11;14.80;99.90
13642;DHT22;6894;52.196;9.904;2023-05-10T09:57:39;14.90;99.90
13642;DHT22;6894;52.196;9.904;2023-05-10T10:00:08;15.00;99.90
13642;DHT22;6894;52.196;9.904;2023-05-10T10:02:35;15.10;99.90
13642;DHT22;6894;52.196;9.904;2023-05-10T10:05:03;15.10;99.90
13642;DHT22;6894;52.196;9.904;2023-05-10T10:07:29;15.20;99.90
13642;DHT22;6894;52.196;9.904;2023-05-10T10:09:56;15.10;99.90
13642;DHT22;6894;52.196;9.904;2023-05-10T10:12:25;15.10;99.90
13642;DHT22;6894;52.196;9.904;2023-05-10T10:14:53;15.10;99.90
13642;DHT22;6894;52.196;9.904;2023-05-10T10:17:21;15.20;99.90
13642;DHT22;6894;52.196;9.904;2023-05-10T10:19:48;15.40;99.90
13642;DHT22;6894;52.196;9.904;2023-05-10T10:22:16;15.50;99.90
13642;DHT22;6894;52.196;9.904;2023-05-10T10:24:43;15.50;99.90
13642;DHT22;6894;52.196;9.904;2023-05-10T10:27:21;15.50;99.90
13642;DHT22;6894;52.196;9.904;2023-05-10T10:29:58;15.60;99.90
13642;DHT22;6894;52.196;9.904;2023-05-10T10:32:38;15.70;99.90
13642;DHT22;6894;52.196;9.904;2023-05-10T10:35:06;15.80;99.90
13642;DHT22;6894;52.196;9.904;2023-05-10T10:37:45;16.00;99.90
13642;DHT22;6894;52.196;9.904;2023-05-10T10:40:26;16.20;99.90
13642;DHT22;6894;52.196;9.904;2023-05-10T10:42:53;16.10;99.90
13642;DHT22;6894;52.196;9.904;2023-05-10T10:45:22;16.20;99.90
13642;DHT22;6894;52.196;9.904;2023-05-10T10:48:00;16.20;99.90
13642;DHT22;6894;52.196;9.904;2023-05-10T10:50:46;16.30;99.90
13642;DHT22;6894;52.196;9.904;2023-05-10T10:53:12;16.20;1.00
13642;DHT22;6894;52.196;9.904;2023-05-10T10:55:46;16.40;97.00
13642;DHT22;6894;52.196;9.904;2023-05-10T10:58:29;16.40;22.50
13642;DHT22;6894;52.196;9.904;2023-05-10T11:01:11;16.30;1.00
13642;DHT22;6894;52.196;9.904;2023-05-10T11:03:38;16.30;1.00
13642;DHT22;6894;52.196;9.904;2023-05-10T11:06:05;16.30;1.00
13642;DHT22;6894;52.196;9.904;2023-05-10T11:08:34;16.30;85.90
13642;DHT22;6894;52.196;9.904;2023-05-10T11:11:06;16.50;51.50
13642;DHT22;6894;52.196;9.904;2023-05-10T11:13:36;16.70;24.10
13642;DHT22;6894;52.196;9.904;2023-05-10T11:16:13;16.80;1.00
13642;DHT22;6894;52.196;9.904;2023-05-10T11:18:40;16.90;1.00
13642;DHT22;6894;52.196;9.904;2023-05-10T11:21:09;17.00;1.00
13642;DHT22;6894;52.196;9.904;2023-05-10T11:23:48;17.10;1.00
13642;DHT22;6894;52.196;9.904;2023-05-10T11:26:16;17.30;1.00
13642;DHT22;6894;52.196;9.904;2023-05-10T11:28:44;17.50;1.00
13642;DHT22;6894;52.196;9.904;2023-05-10T11:31:15;17.50;99.90
13642;DHT22;6894;52.196;9.904;2023-05-10T11:33:46;17.80;99.90
13642;DHT22;6894;52.196;9.904;2023-05-10T11:36:14;18.10;99.90
13642;DHT22;6894;52.196;9.904;2023-05-10T11:38:41;18.10;1.00
13642;DHT22;6894;52.196;9.904;2023-05-10T11:41:08;18.20;28.50
13642;DHT22;6894;52.196;9.904;2023-05-10T11:43:37;18.40;1.00
13642;DHT22;6894;52.196;9.904;2023-05-10T11:46:04;18.40;1.00
13642;DHT22;6894;52.196;9.904;2023-05-10T11:48:33;18.60;99.90
13642;DHT22;6894;52.196;9.904;2023-05-10T11:51:00;18.70;1.00
13642;DHT22;6894;52.196;9.904;2023-05-10T11:53:27;19.00;1.00
13642;DHT22;6894;52.196;9.904;2023-05-10T11:55:54;19.00;1.00
13642;DHT22;6894;52.196;9.904;2023-05-10T11:58:21;19.50;99.90
13642;DHT22;6894;52.196;9.904;2023-05-10T12:00:49;19.70;1.00
13642;DHT22;6894;52.196;9.904;2023-05-10T12:03:17;19.60;1.00
13642;DHT22;6894;52.196;9.904;2023-05-10T12:05:45;19.40;1.00
13642;DHT22;6894;52.196;9.904;2023-05-10T12:08:12;19.60;1.00
13642;DHT22;6894;52.196;9.904;2023-05-10T12:10:39;19.90;99.90
13642;DHT22;6894;52.196;9.904;2023-05-10T12:13:11;20.20;99.90
13642;DHT22;6894;52.196;9.904;2023-05-10T12:15:38;20.20;1.00
13642;DHT22;6894;52.196;9.904;2023-05-10T12:18:04;20.10;99.90
13642;DHT22;6894;52.196;9.904;2023-05-10T12:20:31;19.90;1.00
13642;DHT22;6894;52.196;9.904;2023-05-10T12:22:59;19.30;1.00
13642;DHT22;6894;52.196;9.904;2023-05-10T12:25:30;19.20;1.00
13642;DHT22;6894;52.196;9.904;2023-05-10T12:28:00;19.00;99.90
13642;DHT22;6894;52.196;9.904;2023-05-10T12:30:28;18.80;99.90
13642;DHT22;6894;52.196;9.904;2023-05-10T12:33:00;18.60;99.90
13642;DHT22;6894;52.196;9.904;2023-05-10T12:35:30;18.40;99.90
13642;DHT22;6894;52.196;9.904;2023-05-10T12:37:57;18.10;1.00
13642;DHT22;6894;52.196;9.904;2023-05-10T12:40:25;17.90;1.00
13642;DHT22;6894;52.196;9.904;2023-05-10T12:42:52;17.70;1.00
13642;DHT22;6894;52.196;9.904;2023-05-10T12:45:19;17.30;27.70
13642;DHT22;6894;52.196;9.904;2023-05-10T12:47:46;17.00;99.90
13642;DHT22;6894;52.196;9.904;2023-05-10T12:50:12;16.90;99.90
13642;DHT22;6894;52.196;9.904;2023-05-10T12:52:39;16.70;99.90
13642;DHT22;6894;52.196;9.904;2023-05-10T12:55:06;16.50;99.90
13642;DHT22;6894;52.196;9.904;2023-05-10T12:57:35;16.50;99.90
13642;DHT22;6894;52.196;9.904;2023-05-10T13:00:02;16.60;99.90
13642;DHT22;6894;52.196;9.904;2023-05-10T13:02:30;16.60;99.90
13642;DHT22;6894;52.196;9.904;2023-05-10T13:04:57;16.60;99.90
13642;DHT22;6894;52.196;9.904;2023-05-10T13:07:23;16.70;99.90
13642;DHT22;6894;52.196;9.904;2023-05-10T13:09:50;16.70;99.90
13642;DHT22;6894;52.196;9.904;2023-05-10T13:12:17;17.00;99.90
13642;DHT22;6894;52.196;9.904;2023-05-10T13:14:45;17.10;99.90
13642;DHT22;6894;52.196;9.904;2023-05-10T13:17:12;17.10;99.90
13642;DHT22;6894;52.196;9.904;2023-05-10T13:19:38;17.30;99.90
13642;DHT22;6894;52.196;9.904;2023-05-10T13:22:05;17.40;99.90
13642;DHT22;6894;52.196;9.904;2023-05-10T13:24:32;17.50;99.90
13642;DHT22;6894;52.196;9.904;2023-05-10T13:26:59;17.70;99.90
13642;DHT22;6894;52.196;9.904;2023-05-10T13:29:25;17.80;52.80
13642;DHT22;6894;52.196;9.904;2023-05-10T13:31:54;17.90;26.50
13642;DHT22;6894;52.196;9.904;2023-05-10T13:34:20;17.90;1.00
13642;DHT22;6894;52.196;9.904;2023-05-10T13:36:47;17.90;1.00
13642;DHT22;6894;52.196;9.904;2023-05-10T13:39:14;17.80;1.00
13642;DHT22;6894;52.196;9.904;2023-05-10T13:41:41;17.80;1.00
13642;DHT22;6894;52.196;9.904;2023-05-10T13:44:08;17.80;1.00
13642;DHT22;6894;52.196;9.904;2023-05-10T13:46:35;17.70;1.00
13642;DHT22;6894;52.196;9.904;2023-05-10T13:49:04;17.70;1.00
13642;DHT22;6894;52.196;9.904;2023-05-10T13:51:31;17.80;1.00
13642;DHT22;6894;52.196;9.904;2023-05-10T13:53:58;17.80;1.00
13642;DHT22;6894;52.196;9.904;2023-05-10T13:56:25;17.90;1.00
13642;DHT22;6894;52.196;9.904;2023-05-10T13:58:52;17.90;1.00
13642;DHT22;6894;52.196;9.904;2023-05-10T14:01:18;18.00;1.00
13642;DHT22;6894;52.196;9.904;2023-05-10T14:03:45;18.00;1.00
13642;DHT22;6894;52.196;9.904;2023-05-10T14:06:13;17.90;1.00
13642;DHT22;6894;52.196;9.904;2023-05-10T14:08:40;18.00;1.00
13642;DHT22;6894;52.196;9.904;2023-05-10T14:11:07;17.90;1.00
13642;DHT22;6894;52.196;9.904;2023-05-10T14:13:34;18.00;99.90
13642;DHT22;6894;52.196;9.904;2023-05-10T14:16:01;18.10;1.00
13642;DHT22;6894;52.196;9.904;2023-05-10T14:18:28;18.10;1.00
13642;DHT22;6894;52.196;9.904;2023-05-10T14:20:55;18.10;99.90
13642;DHT22;6894;52.196;9.904;2023-05-10T14:23:23;18.10;1.00
13642;DHT22;6894;52.196;9.904;2023-05-10T14:25:51;18.20;99.90
13642;DHT22;6894;52.196;9.904;2023-05-10T14:28:18;18.20;99.90
13642;DHT22;6894;52.196;9.904;2023-05-10T14:30:46;18.10;99.90
13642;DHT22;6894;52.196;9.904;2023-05-10T14:33:13;18.60;1.00
13642;DHT22;6894;52.196;9.904;2023-05-10T14:35:39;18.30;99.90
13642;DHT22;6894;52.196;9.904;2023-05-10T14:38:06;18.30;1.00
13642;DHT22;6894;52.196;9.904;2023-05-10T14:40:34;18.30;99.90
13642;DHT22;6894;52.196;9.904;2023-05-10T14:43:01;18.40;99.90
13642;DHT22;6894;52.196;9.904;2023-05-10T14:45:28;18.50;1.00
13642;DHT22;6894;52.196;9.904;2023-05-10T14:47:55;18.40;99.90
13642;DHT22;6894;52.196;9.904;2023-05-10T14:50:22;18.40;99.90
13642;DHT22;6894;52.196;9.904;2023-05-10T14:52:49;18.30;1.00
13642;DHT22;6894;52.196;9.904;2023-05-10T14:55:16;18.40;1.00
13642;DHT22;6894;52.196;9.904;2023-05-10T14:57:44;18.40;1.00
13642;DHT22;6894;52.196;9.904;2023-05-10T15:00:13;18.40;99.90
13642;DHT22;6894;52.196;9.904;2023-05-10T15:02:41;18.30;99.90
13642;DHT22;6894;52.196;9.904;2023-05-10T15:05:08;18.40;1.00
13642;DHT22;6894;52.196;9.904;2023-05-10T15:07:35;18.40;1.00
13642;DHT22;6894;52.196;9.904;2023-05-10T15:10:02;18.40;1.00
13642;DHT22;6894;52.196;9.904;2023-05-10T15:12:29;18.40;99.90
13642;DHT22;6894;52.196;9.904;2023-05-10T15:14:57;18.30;1.00
13642;DHT22;6894;52.196;9.904;2023-05-10T15:17:23;18.20;33.90
13642;DHT22;6894;52.196;9.904;2023-05-10T15:19:50;18.20;1.00
13642;DHT22;6894;52.196;9.904;2023-05-10T15:22:17;18.10;99.90
13642;DHT22;6894;52.196;9.904;2023-05-10T15:24:44;18.00;99.90
13642;DHT22;6894;52.196;9.904;2023-05-10T15:27:11;18.00;99.90
13642;DHT22;6894;52.196;9.904;2023-05-10T15:29:37;17.90;1.00
13642;DHT22;6894;52.196;9.904;2023-05-10T15:32:06;17.80;1.00
13642;DHT22;6894;52.196;9.904;2023-05-10T15:34:33;17.80;26.40
13642;DHT22;6894;52.196;9.904;2023-05-10T15:36:59;17.70;99.90
13642;DHT22;6894;52.196;9.904;2023-05-10T15:39:26;17.70;1.00
13642;DHT22;6894;52.196;9.904;2023-05-10T15:41:53;17.70;99.90
13642;DHT22;6894;52.196;9.904;2023-05-10T15:44:20;17.70;99.90
13642;DHT22;6894;52.196;9.904;2023-05-10T15:46:47;17.60;1.00
13642;DHT22;6894;52.196;9.904;2023-05-10T15:49:15;17.60;1.00
13642;DHT22;6894;52.196;9.904;2023-05-10T15:51:42;17.60;99.90
13642;DHT22;6894;52.196;9.904;2023-05-10T15:54:09;17.50;27.50
13642;DHT22;6894;52.196;9.904;2023-05-10T15:56:36;17.40;99.90
13642;DHT22;6894;52.196;9.904;2023-05-10T15:59:03;17.40;1.00
13642;DHT22;6894;52.196;9.904;2023-05-10T16:01:30;17.30;1.00
13642;DHT22;6894;52.196;9.904;2023-05-10T16:03:57;17.20;1.00